DLH585 HECA-EDDF
Flight info
| Callsign | DLH585 |
|---|---|
| Flight time | N/A |
| Altitude | 36000 |
| Route | MENKU L617 NOZ L551 ANTAR DCT RIGRO DCT FSK UL608 DISOR DCT LONTA UL608 DOLEV DCT LURID DCT ZAG DCT BEDOX DCT SIMBA DCT AKINI T161 DEBHI DEBHI1B |
| Aircraft | A346/H-SDE2E3FGHIJ3J4J5M1RWXY/LB1D1 |
Departure
| Time | 2026-05-06 11:24 |
|---|---|
| Airport | Cairo International Airport (HECA) |
Arrival
| Time | N/A |
|---|---|
| Airport | Frankfurt Main Airport (EDDF) |
| Time | Latitude | Longitude | Altitude | Speed | Heading |
|---|---|---|---|---|---|
| 2026-05-06 11:02 | 30.11066 | 31.40234 | 382 ft | 0 kts | 17° |
| 2026-05-06 11:11 | 30.11055 | 31.40230 | 382 ft | 4 kts | 17° |
| 2026-05-06 11:11 | 30.11029 | 31.40221 | 382 ft | 3 kts | 17° |
| 2026-05-06 11:12 | 30.11009 | 31.40212 | 382 ft | 4 kts | 37° |
| 2026-05-06 11:12 | 30.10999 | 31.40197 | 382 ft | 4 kts | 77° |
| 2026-05-06 11:12 | 30.11000 | 31.40174 | 382 ft | 4 kts | 107° |
| 2026-05-06 11:12 | 30.11009 | 31.40145 | 382 ft | 3 kts | 108° |
| 2026-05-06 11:13 | 30.11009 | 31.40142 | 382 ft | 0 kts | 107° |
| 2026-05-06 11:13 | 30.11010 | 31.40142 | 382 ft | 0 kts | 107° |
| 2026-05-06 11:14 | 30.11009 | 31.40142 | 382 ft | 0 kts | 107° |
| 2026-05-06 11:17 | 30.10999 | 31.40179 | 382 ft | 14 kts | 107° |
| 2026-05-06 11:17 | 30.10969 | 31.40291 | 382 ft | 11 kts | 107° |
| 2026-05-06 11:18 | 30.10935 | 31.40419 | 382 ft | 21 kts | 108° |
| 2026-05-06 11:18 | 30.10868 | 31.40459 | 382 ft | 16 kts | 209° |
| 2026-05-06 11:18 | 30.10762 | 31.40329 | 382 ft | 29 kts | 229° |
| 2026-05-06 11:18 | 30.10626 | 31.40148 | 382 ft | 30 kts | 229° |
| 2026-05-06 11:19 | 30.10486 | 31.39963 | 382 ft | 31 kts | 229° |
| 2026-05-06 11:19 | 30.10344 | 31.39774 | 382 ft | 31 kts | 229° |
| 2026-05-06 11:19 | 30.10200 | 31.39592 | 382 ft | 23 kts | 212° |
| 2026-05-06 11:19 | 30.10063 | 31.39659 | 382 ft | 24 kts | 140° |
| 2026-05-06 11:20 | 30.10008 | 31.39834 | 381 ft | 25 kts | 78° |
| 2026-05-06 11:20 | 30.10119 | 31.40023 | 383 ft | 31 kts | 48° |
| 2026-05-06 11:20 | 30.10268 | 31.40220 | 382 ft | 27 kts | 49° |
| 2026-05-06 11:20 | 30.10244 | 31.40318 | 382 ft | 16 kts | 147° |
| 2026-05-06 11:21 | 30.10137 | 31.40408 | 382 ft | 22 kts | 140° |
| 2026-05-06 11:21 | 30.10007 | 31.40543 | 382 ft | 27 kts | 137° |
| 2026-05-06 11:21 | 30.09859 | 31.40695 | 383 ft | 29 kts | 139° |
| 2026-05-06 11:21 | 30.09791 | 31.40894 | 383 ft | 29 kts | 79° |
| 2026-05-06 11:22 | 30.09835 | 31.41126 | 383 ft | 30 kts | 79° |
| 2026-05-06 11:22 | 30.09877 | 31.41374 | 383 ft | 32 kts | 79° |
| 2026-05-06 11:22 | 30.09921 | 31.41634 | 383 ft | 33 kts | 80° |
| 2026-05-06 11:22 | 30.09849 | 31.41790 | 383 ft | 23 kts | 140° |
| 2026-05-06 11:23 | 30.09758 | 31.41935 | 380 ft | 25 kts | 83° |
| 2026-05-06 11:23 | 30.09863 | 31.42102 | 382 ft | 28 kts | 49° |
| 2026-05-06 11:23 | 30.10166 | 31.42500 | 386 ft | 106 kts | 49° |
| 2026-05-06 11:23 | 30.10812 | 31.43359 | 386 ft | 173 kts | 48° |
| 2026-05-06 11:24 | 30.11656 | 31.44500 | 942 ft | 194 kts | 48° |
| 2026-05-06 11:24 | 30.12546 | 31.45715 | 1838 ft | 202 kts | 47° |
| 2026-05-06 11:24 | 30.13509 | 31.46911 | 2773 ft | 202 kts | 37° |
| 2026-05-06 11:24 | 30.14791 | 31.47642 | 3302 ft | 216 kts | 12° |
| 2026-05-06 11:25 | 30.16359 | 31.47633 | 3625 ft | 238 kts | 345° |
| 2026-05-06 11:25 | 30.17875 | 31.46731 | 4164 ft | 255 kts | 319° |
| 2026-05-06 11:25 | 30.18948 | 31.45069 | 4896 ft | 264 kts | 294° |
| 2026-05-06 11:25 | 30.19378 | 31.42982 | 5673 ft | 272 kts | 277° |
| 2026-05-06 11:26 | 30.19455 | 31.40744 | 6373 ft | 283 kts | 273° |
| 2026-05-06 11:26 | 30.19499 | 31.38476 | 7334 ft | 278 kts | 274° |
| 2026-05-06 11:26 | 30.19819 | 31.36306 | 8320 ft | 273 kts | 294° |
| 2026-05-06 11:26 | 30.20854 | 31.34469 | 9180 ft | 274 kts | 310° |
| 2026-05-06 11:27 | 30.22163 | 31.32837 | 10001 ft | 278 kts | 314° |
| 2026-05-06 11:27 | 30.23540 | 31.31237 | 10649 ft | 285 kts | 314° |
| 2026-05-06 11:27 | 30.24985 | 31.29570 | 11060 ft | 302 kts | 314° |
| 2026-05-06 11:27 | 30.26509 | 31.27805 | 11399 ft | 319 kts | 314° |
| 2026-05-06 11:28 | 30.28126 | 31.25927 | 11737 ft | 337 kts | 314° |
| 2026-05-06 11:28 | 30.29822 | 31.23952 | 12049 ft | 355 kts | 314° |
| 2026-05-06 11:28 | 30.31603 | 31.21874 | 12411 ft | 370 kts | 314° |
| 2026-05-06 11:28 | 30.33436 | 31.19736 | 13053 ft | 376 kts | 314° |
| 2026-05-06 11:29 | 30.35284 | 31.17580 | 13852 ft | 378 kts | 313° |
| 2026-05-06 11:29 | 30.37144 | 31.15407 | 14513 ft | 381 kts | 313° |
| 2026-05-06 11:29 | 30.38997 | 31.13239 | 15144 ft | 385 kts | 313° |
| 2026-05-06 11:29 | 30.40918 | 31.10989 | 15784 ft | 389 kts | 313° |
| 2026-05-06 11:30 | 30.42833 | 31.08745 | 16431 ft | 393 kts | 313° |
| 2026-05-06 11:30 | 30.44741 | 31.06509 | 17082 ft | 397 kts | 313° |
| 2026-05-06 11:30 | 30.46687 | 31.04226 | 17734 ft | 401 kts | 313° |
| 2026-05-06 11:30 | 30.48658 | 31.01912 | 18357 ft | 403 kts | 313° |
| 2026-05-06 11:31 | 30.50627 | 30.99599 | 18907 ft | 406 kts | 313° |
| 2026-05-06 11:31 | 30.52624 | 30.97252 | 19426 ft | 409 kts | 313° |
| 2026-05-06 11:31 | 30.54630 | 30.94893 | 19952 ft | 413 kts | 312° |
| 2026-05-06 11:31 | 30.56655 | 30.92511 | 20463 ft | 416 kts | 312° |
| 2026-05-06 11:32 | 30.58695 | 30.90109 | 20980 ft | 419 kts | 312° |
| 2026-05-06 11:32 | 30.60749 | 30.87688 | 21482 ft | 422 kts | 312° |
| 2026-05-06 11:32 | 30.62817 | 30.85249 | 21983 ft | 426 kts | 312° |
| 2026-05-06 11:32 | 30.64905 | 30.82786 | 22479 ft | 429 kts | 312° |
| 2026-05-06 11:33 | 30.67009 | 30.80302 | 22963 ft | 433 kts | 312° |
| 2026-05-06 11:33 | 30.69130 | 30.77798 | 23453 ft | 436 kts | 312° |
| 2026-05-06 11:33 | 30.71269 | 30.75268 | 23882 ft | 440 kts | 312° |
| 2026-05-06 11:33 | 30.73416 | 30.72728 | 24302 ft | 442 kts | 311° |
| 2026-05-06 11:34 | 30.75581 | 30.70165 | 24750 ft | 444 kts | 311° |
| 2026-05-06 11:34 | 30.77744 | 30.67604 | 25205 ft | 445 kts | 311° |
| 2026-05-06 11:34 | 30.79921 | 30.65024 | 25644 ft | 447 kts | 311° |
| 2026-05-06 11:34 | 30.82103 | 30.62436 | 26098 ft | 448 kts | 311° |
| 2026-05-06 11:35 | 30.84293 | 30.59838 | 26548 ft | 450 kts | 311° |
| 2026-05-06 11:35 | 30.86487 | 30.57233 | 27007 ft | 451 kts | 311° |
| 2026-05-06 11:35 | 30.88687 | 30.54617 | 27428 ft | 453 kts | 311° |
| 2026-05-06 11:35 | 30.90146 | 30.52881 | 27703 ft | 454 kts | 311° |
| 2026-05-06 11:36 | 30.93114 | 30.49349 | 28254 ft | 456 kts | 311° |
| 2026-05-06 11:36 | 30.94588 | 30.47595 | 28575 ft | 456 kts | 311° |
| 2026-05-06 11:36 | 30.96802 | 30.44958 | 29206 ft | 453 kts | 311° |
| 2026-05-06 11:36 | 30.97391 | 30.44257 | 29381 ft | 452 kts | 311° |
| 2026-05-06 11:37 | 30.99250 | 30.42040 | 29946 ft | 449 kts | 311° |
| 2026-05-06 11:37 | 31.01420 | 30.39452 | 30527 ft | 446 kts | 311° |
| 2026-05-06 11:37 | 31.03510 | 30.36797 | 31002 ft | 442 kts | 308° |
| 2026-05-06 11:37 | 31.05431 | 30.34002 | 31441 ft | 440 kts | 304° |
| 2026-05-06 11:38 | 31.07183 | 30.31074 | 31902 ft | 437 kts | 300° |
| 2026-05-06 11:38 | 31.08749 | 30.28049 | 32359 ft | 435 kts | 297° |
| 2026-05-06 11:38 | 31.10137 | 30.24924 | 32814 ft | 432 kts | 293° |
| 2026-05-06 11:38 | 31.11341 | 30.21719 | 33264 ft | 430 kts | 290° |
| 2026-05-06 11:39 | 31.12361 | 30.18447 | 33706 ft | 427 kts | 287° |
| 2026-05-06 11:39 | 31.13279 | 30.15149 | 34145 ft | 426 kts | 286° |
| 2026-05-06 11:39 | 31.14184 | 30.11858 | 34503 ft | 425 kts | 286° |
| 2026-05-06 11:39 | 31.15082 | 30.08570 | 34823 ft | 424 kts | 286° |
| 2026-05-06 11:40 | 31.16028 | 30.05304 | 35110 ft | 426 kts | 290° |
| 2026-05-06 11:40 | 31.17266 | 30.02143 | 35368 ft | 428 kts | 296° |
| 2026-05-06 11:40 | 31.18792 | 29.99169 | 35620 ft | 430 kts | 302° |
| 2026-05-06 11:40 | 31.20612 | 29.96377 | 35869 ft | 433 kts | 307° |
| 2026-05-06 11:41 | 31.22704 | 29.93818 | 36078 ft | 437 kts | 313° |
| 2026-05-06 11:41 | 31.27599 | 29.89565 | 36110 ft | 445 kts | 325° |
| 2026-05-06 11:42 | 31.33056 | 29.86091 | 36111 ft | 447 kts | 327° |
| 2026-05-06 11:42 | 31.38545 | 29.82670 | 36131 ft | 447 kts | 327° |
| 2026-05-06 11:43 | 31.44022 | 29.79245 | 36121 ft | 445 kts | 327° |
| 2026-05-06 11:43 | 31.49489 | 29.75821 | 36124 ft | 445 kts | 327° |
| 2026-05-06 11:44 | 31.57679 | 29.70675 | 36127 ft | 444 kts | 327° |
| 2026-05-06 11:44 | 31.63136 | 29.67242 | 36123 ft | 444 kts | 327° |
| 2026-05-06 11:45 | 31.68584 | 29.63809 | 36121 ft | 444 kts | 327° |
| 2026-05-06 11:45 | 31.74031 | 29.60372 | 36118 ft | 444 kts | 327° |
| 2026-05-06 11:46 | 31.79493 | 29.56922 | 36119 ft | 444 kts | 327° |
| 2026-05-06 11:46 | 31.84935 | 29.53476 | 36128 ft | 444 kts | 327° |
| 2026-05-06 11:47 | 31.90373 | 29.50032 | 36120 ft | 444 kts | 327° |
| 2026-05-06 11:47 | 31.94709 | 29.47284 | 36119 ft | 444 kts | 327° |
| 2026-05-06 11:48 | 32.00138 | 29.43835 | 36119 ft | 443 kts | 327° |
| 2026-05-06 11:48 | 32.05567 | 29.40380 | 36120 ft | 443 kts | 327° |
| 2026-05-06 11:49 | 32.10997 | 29.36919 | 36131 ft | 443 kts | 327° |
| 2026-05-06 11:49 | 32.16414 | 29.33462 | 36122 ft | 442 kts | 327° |
| 2026-05-06 11:50 | 32.20504 | 29.30850 | 36121 ft | 442 kts | 327° |
| 2026-05-06 11:50 | 32.25516 | 29.27641 | 36116 ft | 442 kts | 327° |
| 2026-05-06 11:51 | 32.29210 | 29.25271 | 36115 ft | 442 kts | 327° |
| 2026-05-06 11:51 | 32.34583 | 29.21820 | 36116 ft | 442 kts | 328° |
| 2026-05-06 11:52 | 32.39994 | 29.18343 | 36115 ft | 442 kts | 328° |
| 2026-05-06 11:52 | 32.43688 | 29.15967 | 36116 ft | 442 kts | 328° |
| 2026-05-06 11:53 | 32.49092 | 29.12487 | 36117 ft | 442 kts | 328° |
| 2026-05-06 11:53 | 32.54494 | 29.09002 | 36116 ft | 442 kts | 327° |
| 2026-05-06 11:54 | 32.59909 | 29.05506 | 36112 ft | 442 kts | 327° |
| 2026-05-06 11:54 | 32.65317 | 29.02008 | 36113 ft | 442 kts | 327° |
| 2026-05-06 11:55 | 32.70702 | 28.98519 | 36122 ft | 441 kts | 328° |
| 2026-05-06 11:55 | 32.76087 | 28.95027 | 36114 ft | 440 kts | 328° |
| 2026-05-06 11:56 | 32.81432 | 28.91554 | 36114 ft | 440 kts | 328° |
| 2026-05-06 11:56 | 32.86813 | 28.88056 | 36114 ft | 440 kts | 328° |
| 2026-05-06 11:57 | 32.91779 | 28.84823 | 36112 ft | 440 kts | 328° |
| 2026-05-06 11:57 | 32.97152 | 28.81318 | 36120 ft | 440 kts | 328° |
| 2026-05-06 11:58 | 33.02510 | 28.77820 | 36111 ft | 439 kts | 328° |
| 2026-05-06 11:58 | 33.07862 | 28.74320 | 36110 ft | 439 kts | 328° |
| 2026-05-06 11:59 | 33.13220 | 28.70812 | 36111 ft | 439 kts | 328° |
| 2026-05-06 11:59 | 33.18572 | 28.67302 | 36108 ft | 439 kts | 328° |
| 2026-05-06 12:00 | 33.23927 | 28.63785 | 36125 ft | 439 kts | 328° |
| 2026-05-06 12:00 | 33.29284 | 28.60263 | 36115 ft | 437 kts | 328° |
| 2026-05-06 12:01 | 33.34612 | 28.56755 | 36113 ft | 437 kts | 328° |
| 2026-05-06 12:01 | 33.39941 | 28.53241 | 36110 ft | 437 kts | 328° |
| 2026-05-06 12:02 | 33.45231 | 28.49748 | 36106 ft | 437 kts | 328° |
| 2026-05-06 12:02 | 33.50563 | 28.46222 | 36105 ft | 437 kts | 328° |
| 2026-05-06 12:03 | 33.55883 | 28.42699 | 36114 ft | 436 kts | 328° |
| 2026-05-06 12:03 | 33.61194 | 28.39177 | 36106 ft | 436 kts | 328° |
| 2026-05-06 12:04 | 33.66503 | 28.35651 | 36105 ft | 436 kts | 328° |
| 2026-05-06 12:04 | 33.71819 | 28.32116 | 36105 ft | 436 kts | 328° |
| 2026-05-06 12:05 | 33.77135 | 28.28576 | 36105 ft | 436 kts | 328° |
| 2026-05-06 12:05 | 33.82510 | 28.25152 | 36108 ft | 437 kts | 330° |
| 2026-05-06 12:06 | 33.86828 | 28.22560 | 36107 ft | 436 kts | 330° |
| 2026-05-06 12:06 | 33.92066 | 28.19421 | 36103 ft | 436 kts | 330° |
| 2026-05-06 12:07 | 33.97501 | 28.16157 | 36099 ft | 436 kts | 330° |
| 2026-05-06 12:07 | 34.02927 | 28.12892 | 36101 ft | 436 kts | 330° |
| 2026-05-06 12:08 | 34.08362 | 28.09615 | 36116 ft | 436 kts | 330° |
| 2026-05-06 12:08 | 34.13776 | 28.06348 | 36107 ft | 435 kts | 330° |
| 2026-05-06 12:09 | 34.19201 | 28.03068 | 36097 ft | 436 kts | 330° |
| 2026-05-06 12:09 | 34.24614 | 27.99791 | 36095 ft | 436 kts | 330° |
| 2026-05-06 12:10 | 34.30005 | 27.96523 | 36096 ft | 436 kts | 330° |
| 2026-05-06 12:10 | 34.35473 | 27.93203 | 36105 ft | 436 kts | 330° |
| 2026-05-06 12:11 | 34.40126 | 27.90373 | 36104 ft | 435 kts | 330° |
| 2026-05-06 12:11 | 34.45533 | 27.87082 | 36093 ft | 435 kts | 330° |
| 2026-05-06 12:12 | 34.49737 | 27.84519 | 36092 ft | 435 kts | 330° |
| 2026-05-06 12:12 | 34.55148 | 27.81216 | 36094 ft | 435 kts | 330° |
| 2026-05-06 12:13 | 34.60552 | 27.77912 | 36092 ft | 435 kts | 330° |
| 2026-05-06 12:13 | 34.65956 | 27.74604 | 36100 ft | 434 kts | 330° |
| 2026-05-06 12:14 | 34.71345 | 27.71300 | 36090 ft | 433 kts | 330° |
| 2026-05-06 12:14 | 34.76731 | 27.67993 | 36089 ft | 433 kts | 330° |
| 2026-05-06 12:15 | 34.82115 | 27.64683 | 36092 ft | 434 kts | 330° |
| 2026-05-06 12:15 | 34.87459 | 27.61391 | 36091 ft | 433 kts | 330° |
| 2026-05-06 12:16 | 34.92841 | 27.58072 | 36093 ft | 432 kts | 330° |
| 2026-05-06 12:16 | 34.98201 | 27.54762 | 36090 ft | 432 kts | 330° |
| 2026-05-06 12:17 | 35.03564 | 27.51445 | 36082 ft | 432 kts | 330° |
| 2026-05-06 12:17 | 35.08928 | 27.48122 | 36090 ft | 432 kts | 330° |
| 2026-05-06 12:18 | 35.14298 | 27.44790 | 36076 ft | 433 kts | 330° |
| 2026-05-06 12:18 | 35.19637 | 27.41473 | 36082 ft | 434 kts | 330° |
| 2026-05-06 12:19 | 35.25023 | 27.38123 | 36087 ft | 434 kts | 330° |
| 2026-05-06 12:19 | 35.30402 | 27.34771 | 36090 ft | 434 kts | 330° |
| 2026-05-06 12:20 | 35.35781 | 27.31414 | 36086 ft | 434 kts | 330° |
| 2026-05-06 12:20 | 35.41160 | 27.28052 | 36106 ft | 434 kts | 330° |
| 2026-05-06 12:21 | 35.46517 | 27.24697 | 36096 ft | 431 kts | 330° |
| 2026-05-06 12:21 | 35.51867 | 27.21344 | 36090 ft | 431 kts | 330° |
| 2026-05-06 12:22 | 35.57206 | 27.17991 | 36101 ft | 430 kts | 330° |
| 2026-05-06 12:22 | 35.62554 | 27.14630 | 36094 ft | 433 kts | 330° |
| 2026-05-06 12:23 | 35.67925 | 27.11246 | 36106 ft | 434 kts | 330° |
| 2026-05-06 12:23 | 35.73240 | 27.07894 | 36100 ft | 431 kts | 330° |
| 2026-05-06 12:24 | 35.78570 | 27.04528 | 36080 ft | 430 kts | 330° |
| 2026-05-06 12:24 | 35.83000 | 27.01726 | 36082 ft | 430 kts | 330° |
| 2026-05-06 12:25 | 35.88316 | 26.98359 | 36084 ft | 430 kts | 330° |
| 2026-05-06 12:25 | 35.93649 | 26.94975 | 36101 ft | 430 kts | 330° |
| 2026-05-06 12:26 | 35.98964 | 26.91599 | 36093 ft | 429 kts | 330° |
| 2026-05-06 12:26 | 36.04263 | 26.88227 | 36092 ft | 428 kts | 330° |
| 2026-05-06 12:27 | 36.09567 | 26.84845 | 36090 ft | 430 kts | 330° |
| 2026-05-06 12:27 | 36.14887 | 26.81450 | 36092 ft | 430 kts | 330° |
| 2026-05-06 12:28 | 36.20202 | 26.78053 | 36090 ft | 430 kts | 330° |
| 2026-05-06 12:28 | 36.25512 | 26.74654 | 36096 ft | 428 kts | 330° |
| 2026-05-06 12:29 | 36.30773 | 26.71281 | 36095 ft | 428 kts | 330° |
| 2026-05-06 12:29 | 36.36067 | 26.67881 | 36094 ft | 428 kts | 330° |
| 2026-05-06 12:30 | 36.41361 | 26.64476 | 36093 ft | 428 kts | 330° |
| 2026-05-06 12:30 | 36.46652 | 26.61067 | 36096 ft | 428 kts | 330° |
| 2026-05-06 12:31 | 36.51933 | 26.57660 | 36102 ft | 427 kts | 330° |
| 2026-05-06 12:31 | 36.57220 | 26.54175 | 35836 ft | 437 kts | 337° |
| 2026-05-06 12:32 | 36.59951 | 26.52461 | 36006 ft | 439 kts | 332° |
| 2026-05-06 12:32 | 36.61049 | 26.51785 | 36037 ft | 436 kts | 330° |
| 2026-05-06 12:32 | 36.64243 | 26.49742 | 36077 ft | 430 kts | 330° |
| 2026-05-06 12:33 | 36.69539 | 26.46287 | 36091 ft | 429 kts | 330° |
| 2026-05-06 12:33 | 36.74829 | 26.42836 | 36114 ft | 428 kts | 330° |
| 2026-05-06 12:34 | 36.80070 | 26.39420 | 36096 ft | 428 kts | 330° |
| 2026-05-06 12:34 | 36.85346 | 26.35981 | 36094 ft | 428 kts | 330° |
| 2026-05-06 12:35 | 36.90621 | 26.32537 | 36099 ft | 428 kts | 330° |
| 2026-05-06 12:35 | 36.95895 | 26.29090 | 36096 ft | 428 kts | 330° |
| 2026-05-06 12:36 | 37.01163 | 26.25640 | 36088 ft | 427 kts | 330° |
| 2026-05-06 12:36 | 37.06435 | 26.22182 | 36091 ft | 428 kts | 330° |
| 2026-05-06 12:37 | 37.11714 | 26.18717 | 36093 ft | 428 kts | 330° |
| 2026-05-06 12:37 | 37.16992 | 26.15246 | 36093 ft | 428 kts | 330° |
| 2026-05-06 12:38 | 37.22267 | 26.11771 | 36093 ft | 428 kts | 330° |
| 2026-05-06 12:38 | 37.27545 | 26.08287 | 36102 ft | 427 kts | 330° |
| 2026-05-06 12:39 | 37.32805 | 26.04812 | 36093 ft | 427 kts | 330° |
| 2026-05-06 12:39 | 37.38063 | 26.01331 | 36093 ft | 427 kts | 330° |
| 2026-05-06 12:40 | 37.43314 | 25.97850 | 36090 ft | 427 kts | 330° |
| 2026-05-06 12:40 | 37.48535 | 25.94383 | 36076 ft | 427 kts | 330° |
| 2026-05-06 12:41 | 37.53802 | 25.90878 | 36091 ft | 428 kts | 330° |
| 2026-05-06 12:41 | 37.59046 | 25.87332 | 36088 ft | 427 kts | 328° |
| 2026-05-06 12:42 | 37.64128 | 25.83452 | 36091 ft | 427 kts | 327° |
| 2026-05-06 12:42 | 37.69187 | 25.79522 | 36091 ft | 427 kts | 327° |
| 2026-05-06 12:43 | 37.74244 | 25.75587 | 36086 ft | 427 kts | 327° |
| 2026-05-06 12:43 | 37.79300 | 25.71649 | 36086 ft | 427 kts | 327° |
| 2026-05-06 12:44 | 37.84355 | 25.67707 | 36084 ft | 427 kts | 327° |
| 2026-05-06 12:44 | 37.89409 | 25.63759 | 36064 ft | 427 kts | 327° |
| 2026-05-06 12:45 | 37.94480 | 25.59789 | 36083 ft | 429 kts | 327° |
| 2026-05-06 12:46 | 38.02103 | 25.53814 | 36099 ft | 429 kts | 327° |
| 2026-05-06 12:46 | 38.07142 | 25.49855 | 36086 ft | 428 kts | 327° |
| 2026-05-06 12:47 | 38.12205 | 25.45871 | 36085 ft | 428 kts | 327° |
| 2026-05-06 12:47 | 38.17268 | 25.41881 | 36083 ft | 428 kts | 327° |
| 2026-05-06 12:48 | 38.22331 | 25.37884 | 36079 ft | 428 kts | 327° |
| 2026-05-06 12:48 | 38.27385 | 25.33888 | 36080 ft | 428 kts | 327° |
| 2026-05-06 12:49 | 38.32450 | 25.29874 | 36083 ft | 429 kts | 327° |
| 2026-05-06 12:49 | 38.37524 | 25.25849 | 36083 ft | 429 kts | 327° |
| 2026-05-06 12:50 | 38.42597 | 25.21818 | 36085 ft | 429 kts | 327° |
| 2026-05-06 12:50 | 38.47670 | 25.17779 | 36084 ft | 430 kts | 327° |
| 2026-05-06 12:51 | 38.52748 | 25.13730 | 36080 ft | 430 kts | 327° |
| 2026-05-06 12:51 | 38.57811 | 25.09685 | 36084 ft | 429 kts | 327° |
| 2026-05-06 12:52 | 38.62874 | 25.05635 | 36081 ft | 429 kts | 327° |
| 2026-05-06 12:52 | 38.67933 | 25.01579 | 36083 ft | 429 kts | 327° |
| 2026-05-06 12:53 | 38.72968 | 24.97537 | 36072 ft | 431 kts | 327° |
| 2026-05-06 12:53 | 38.78055 | 24.93446 | 36073 ft | 432 kts | 326° |
| 2026-05-06 12:54 | 38.83140 | 24.89350 | 36082 ft | 431 kts | 327° |
| 2026-05-06 12:54 | 38.88223 | 24.85248 | 36081 ft | 431 kts | 326° |
| 2026-05-06 12:55 | 38.93293 | 24.81150 | 36082 ft | 431 kts | 326° |
| 2026-05-06 12:55 | 38.98368 | 24.77041 | 36078 ft | 431 kts | 326° |
| 2026-05-06 12:56 | 39.03445 | 24.72923 | 36077 ft | 431 kts | 326° |
| 2026-05-06 12:56 | 39.08515 | 24.68803 | 36084 ft | 430 kts | 326° |
| 2026-05-06 12:57 | 39.13578 | 24.64682 | 36079 ft | 430 kts | 326° |
| 2026-05-06 12:57 | 39.18639 | 24.60556 | 36075 ft | 430 kts | 326° |
| 2026-05-06 12:58 | 39.23698 | 24.56425 | 36073 ft | 430 kts | 326° |
| 2026-05-06 12:58 | 39.28755 | 24.52287 | 36072 ft | 430 kts | 326° |
| 2026-05-06 12:59 | 39.33777 | 24.48171 | 36076 ft | 430 kts | 326° |
| 2026-05-06 12:59 | 39.38827 | 24.44025 | 36073 ft | 430 kts | 326° |
| 2026-05-06 13:00 | 39.43877 | 24.39873 | 36073 ft | 430 kts | 326° |
| 2026-05-06 13:00 | 39.48930 | 24.35710 | 36068 ft | 431 kts | 326° |
| 2026-05-06 13:01 | 39.53993 | 24.31532 | 36071 ft | 432 kts | 326° |
| 2026-05-06 13:01 | 39.59062 | 24.27340 | 36076 ft | 432 kts | 326° |
| 2026-05-06 13:02 | 39.64123 | 24.23148 | 36068 ft | 431 kts | 326° |
| 2026-05-06 13:02 | 39.69182 | 24.18951 | 36067 ft | 431 kts | 326° |
| 2026-05-06 13:03 | 39.74240 | 24.14748 | 36065 ft | 431 kts | 326° |
| 2026-05-06 13:03 | 39.79296 | 24.10539 | 36067 ft | 431 kts | 326° |
| 2026-05-06 13:04 | 39.84351 | 24.06322 | 36055 ft | 431 kts | 326° |
| 2026-05-06 13:04 | 39.89412 | 24.02094 | 36065 ft | 433 kts | 326° |
| 2026-05-06 13:05 | 39.93627 | 23.98567 | 36067 ft | 433 kts | 326° |
| 2026-05-06 13:05 | 39.99554 | 23.93597 | 36062 ft | 433 kts | 326° |
| 2026-05-06 13:06 | 40.04625 | 23.89337 | 36062 ft | 433 kts | 326° |
| 2026-05-06 13:06 | 40.09695 | 23.85070 | 36070 ft | 433 kts | 326° |
| 2026-05-06 13:07 | 40.14728 | 23.80827 | 36061 ft | 433 kts | 326° |
| 2026-05-06 13:07 | 40.19794 | 23.76549 | 36061 ft | 433 kts | 326° |
| 2026-05-06 13:08 | 40.24864 | 23.72261 | 36048 ft | 435 kts | 326° |
| 2026-05-06 13:08 | 40.29950 | 23.67949 | 36054 ft | 435 kts | 326° |
| 2026-05-06 13:09 | 40.35035 | 23.63630 | 36057 ft | 435 kts | 326° |
| 2026-05-06 13:09 | 40.40120 | 23.59303 | 36048 ft | 435 kts | 326° |
| 2026-05-06 13:10 | 40.45204 | 23.54971 | 36046 ft | 435 kts | 326° |
| 2026-05-06 13:10 | 40.50281 | 23.50637 | 36048 ft | 435 kts | 326° |
| 2026-05-06 13:11 | 40.55368 | 23.46285 | 36045 ft | 435 kts | 326° |
| 2026-05-06 13:11 | 40.60449 | 23.41930 | 36031 ft | 436 kts | 326° |
| 2026-05-06 13:12 | 40.65547 | 23.37555 | 36040 ft | 438 kts | 326° |
| 2026-05-06 13:12 | 40.70650 | 23.33165 | 36032 ft | 438 kts | 326° |
| 2026-05-06 13:13 | 40.75718 | 23.28797 | 36029 ft | 438 kts | 326° |
| 2026-05-06 13:13 | 40.79992 | 23.25107 | 36024 ft | 438 kts | 325° |
| 2026-05-06 13:14 | 40.85059 | 23.20726 | 36030 ft | 438 kts | 325° |
| 2026-05-06 13:14 | 40.90162 | 23.16305 | 36026 ft | 438 kts | 325° |
| 2026-05-06 13:15 | 40.95267 | 23.11873 | 36026 ft | 438 kts | 325° |
| 2026-05-06 13:15 | 41.00367 | 23.07441 | 36021 ft | 440 kts | 325° |
| 2026-05-06 13:16 | 41.05422 | 23.02871 | 36026 ft | 439 kts | 322° |
| 2026-05-06 13:16 | 41.10126 | 22.97717 | 36030 ft | 439 kts | 316° |
| 2026-05-06 13:17 | 41.14414 | 22.91957 | 36023 ft | 438 kts | 311° |
| 2026-05-06 13:17 | 41.18389 | 22.85799 | 36027 ft | 438 kts | 310° |
| 2026-05-06 13:18 | 41.21430 | 22.81017 | 36019 ft | 438 kts | 310° |
| 2026-05-06 13:18 | 41.24322 | 22.76478 | 36013 ft | 438 kts | 310° |
| 2026-05-06 13:19 | 41.28523 | 22.70677 | 36005 ft | 439 kts | 320° |
| 2026-05-06 13:19 | 41.33497 | 22.65915 | 36020 ft | 441 kts | 324° |
| 2026-05-06 13:20 | 41.38574 | 22.61315 | 36020 ft | 441 kts | 323° |
| 2026-05-06 13:20 | 41.43035 | 22.55758 | 36025 ft | 439 kts | 310° |
| 2026-05-06 13:21 | 41.46989 | 22.49539 | 36024 ft | 439 kts | 309° |
| 2026-05-06 13:21 | 41.50938 | 22.43312 | 36012 ft | 440 kts | 309° |
| 2026-05-06 13:22 | 41.54902 | 22.37077 | 36017 ft | 440 kts | 309° |
| 2026-05-06 13:22 | 41.58866 | 22.30841 | 36010 ft | 440 kts | 309° |
| 2026-05-06 13:23 | 41.62830 | 22.24600 | 36018 ft | 440 kts | 309° |
| 2026-05-06 13:23 | 41.66786 | 22.18360 | 36008 ft | 440 kts | 309° |
| 2026-05-06 13:24 | 41.70743 | 22.12107 | 36003 ft | 440 kts | 309° |
| 2026-05-06 13:24 | 41.74710 | 22.05826 | 36004 ft | 441 kts | 309° |
| 2026-05-06 13:25 | 41.78634 | 21.99598 | 36000 ft | 441 kts | 309° |
| 2026-05-06 13:25 | 41.82619 | 21.93259 | 36000 ft | 441 kts | 309° |
| 2026-05-06 13:26 | 41.86548 | 21.86996 | 36001 ft | 441 kts | 309° |
| 2026-05-06 13:26 | 41.90502 | 21.80682 | 35999 ft | 441 kts | 309° |
| 2026-05-06 13:27 | 41.94460 | 21.74355 | 35997 ft | 443 kts | 308° |
| 2026-05-06 13:27 | 41.98420 | 21.68001 | 35999 ft | 443 kts | 308° |
| 2026-05-06 13:28 | 42.02371 | 21.61647 | 35998 ft | 443 kts | 308° |
| 2026-05-06 13:28 | 42.06331 | 21.55269 | 36002 ft | 443 kts | 308° |
| 2026-05-06 13:29 | 42.10280 | 21.48894 | 36008 ft | 443 kts | 308° |
| 2026-05-06 13:29 | 42.14228 | 21.42507 | 36009 ft | 443 kts | 308° |
| 2026-05-06 13:30 | 42.18196 | 21.36133 | 36014 ft | 443 kts | 309° |
| 2026-05-06 13:30 | 42.22180 | 21.29838 | 36019 ft | 443 kts | 309° |
| 2026-05-06 13:31 | 42.26174 | 21.23509 | 36030 ft | 443 kts | 309° |
| 2026-05-06 13:31 | 42.30168 | 21.17157 | 36027 ft | 443 kts | 309° |
| 2026-05-06 13:32 | 42.34159 | 21.10800 | 36029 ft | 444 kts | 308° |
| 2026-05-06 13:32 | 42.38157 | 21.04409 | 36029 ft | 445 kts | 308° |
| 2026-05-06 13:33 | 42.42153 | 20.98009 | 36029 ft | 445 kts | 308° |
| 2026-05-06 13:33 | 42.46149 | 20.91594 | 36029 ft | 445 kts | 308° |
| 2026-05-06 13:34 | 42.50140 | 20.85176 | 36029 ft | 445 kts | 308° |
| 2026-05-06 13:34 | 42.54124 | 20.78755 | 36027 ft | 445 kts | 308° |
| 2026-05-06 13:35 | 42.58093 | 20.72344 | 36026 ft | 446 kts | 308° |
| 2026-05-06 13:35 | 42.62087 | 20.65875 | 36025 ft | 447 kts | 308° |
| 2026-05-06 13:36 | 42.66080 | 20.59397 | 36019 ft | 447 kts | 308° |
| 2026-05-06 13:36 | 42.70068 | 20.52912 | 36020 ft | 446 kts | 308° |
| 2026-05-06 13:37 | 42.74047 | 20.46427 | 36023 ft | 447 kts | 307° |
| 2026-05-06 13:37 | 42.78029 | 20.39923 | 36014 ft | 447 kts | 307° |
| 2026-05-06 13:38 | 42.82055 | 20.33452 | 36008 ft | 448 kts | 310° |
| 2026-05-06 13:38 | 42.86477 | 20.27440 | 36001 ft | 450 kts | 315° |
| 2026-05-06 13:39 | 42.91163 | 20.21775 | 36002 ft | 450 kts | 316° |
| 2026-05-06 13:39 | 42.95861 | 20.16132 | 36003 ft | 450 kts | 316° |
| 2026-05-06 13:40 | 43.00559 | 20.10478 | 36000 ft | 451 kts | 315° |
| 2026-05-06 13:40 | 43.05264 | 20.04790 | 35998 ft | 451 kts | 315° |
| 2026-05-06 13:41 | 43.09963 | 19.99093 | 35986 ft | 451 kts | 315° |
| 2026-05-06 13:41 | 43.14660 | 19.93389 | 35989 ft | 451 kts | 315° |
| 2026-05-06 13:42 | 43.19352 | 19.87679 | 35991 ft | 451 kts | 315° |
| 2026-05-06 13:42 | 43.24042 | 19.81959 | 35989 ft | 451 kts | 315° |
| 2026-05-06 13:43 | 43.28730 | 19.76229 | 35985 ft | 452 kts | 315° |
| 2026-05-06 13:43 | 43.33399 | 19.70511 | 35985 ft | 452 kts | 315° |
| 2026-05-06 13:44 | 43.38128 | 19.64707 | 35975 ft | 452 kts | 315° |
| 2026-05-06 13:44 | 43.42794 | 19.58968 | 35978 ft | 453 kts | 315° |
| 2026-05-06 13:45 | 43.47499 | 19.53169 | 35974 ft | 454 kts | 315° |
| 2026-05-06 13:45 | 43.54548 | 19.44450 | 35972 ft | 454 kts | 315° |
| 2026-05-06 13:46 | 43.59244 | 19.38630 | 35966 ft | 453 kts | 315° |
| 2026-05-06 13:46 | 43.63930 | 19.32809 | 35970 ft | 453 kts | 315° |
| 2026-05-06 13:47 | 43.68626 | 19.26964 | 35964 ft | 455 kts | 315° |
| 2026-05-06 13:47 | 43.73333 | 19.21090 | 35964 ft | 455 kts | 315° |
| 2026-05-06 13:48 | 43.78000 | 19.15252 | 35953 ft | 455 kts | 315° |
| 2026-05-06 13:48 | 43.82694 | 19.09371 | 35977 ft | 455 kts | 315° |
| 2026-05-06 13:49 | 43.87383 | 19.03485 | 35955 ft | 455 kts | 315° |
| 2026-05-06 13:49 | 43.92082 | 18.97569 | 35958 ft | 456 kts | 315° |
| 2026-05-06 13:50 | 43.96779 | 18.91642 | 35956 ft | 456 kts | 315° |
| 2026-05-06 13:50 | 44.01467 | 18.85715 | 35962 ft | 456 kts | 314° |
| 2026-05-06 13:51 | 44.06153 | 18.79778 | 35955 ft | 455 kts | 314° |
| 2026-05-06 13:51 | 44.10840 | 18.73826 | 35956 ft | 456 kts | 314° |
| 2026-05-06 13:52 | 44.15520 | 18.67866 | 35946 ft | 456 kts | 314° |
| 2026-05-06 13:52 | 44.20205 | 18.61887 | 35945 ft | 456 kts | 314° |
| 2026-05-06 13:53 | 44.24895 | 18.55890 | 35939 ft | 456 kts | 314° |
| 2026-05-06 13:53 | 44.29565 | 18.49907 | 35931 ft | 455 kts | 314° |
| 2026-05-06 13:54 | 44.34226 | 18.43920 | 35925 ft | 454 kts | 314° |
| 2026-05-06 13:54 | 44.38849 | 18.37967 | 35922 ft | 454 kts | 314° |
| 2026-05-06 13:55 | 44.43495 | 18.31970 | 35922 ft | 455 kts | 314° |
| 2026-05-06 13:55 | 44.48155 | 18.25946 | 35918 ft | 456 kts | 313° |
| 2026-05-06 13:56 | 44.52821 | 18.19901 | 35925 ft | 456 kts | 313° |
| 2026-05-06 13:56 | 44.57473 | 18.13855 | 35915 ft | 455 kts | 313° |
| 2026-05-06 13:57 | 44.62118 | 18.07805 | 35916 ft | 455 kts | 313° |
| 2026-05-06 13:57 | 44.66761 | 18.01745 | 35913 ft | 456 kts | 313° |
| 2026-05-06 13:58 | 44.71433 | 17.95631 | 35911 ft | 458 kts | 313° |
| 2026-05-06 13:58 | 44.76102 | 17.89514 | 35923 ft | 457 kts | 313° |
| 2026-05-06 13:59 | 44.80747 | 17.83413 | 35915 ft | 456 kts | 312° |
| 2026-05-06 13:59 | 44.85380 | 17.77305 | 35912 ft | 456 kts | 312° |
| 2026-05-06 14:00 | 44.90020 | 17.71178 | 35912 ft | 458 kts | 312° |
| 2026-05-06 14:00 | 44.94681 | 17.65008 | 35909 ft | 459 kts | 312° |
| 2026-05-06 14:01 | 44.99335 | 17.58833 | 35915 ft | 459 kts | 312° |
| 2026-05-06 14:01 | 45.03976 | 17.52667 | 35911 ft | 457 kts | 312° |
| 2026-05-06 14:02 | 45.08577 | 17.46532 | 35915 ft | 458 kts | 312° |
| 2026-05-06 14:02 | 45.13224 | 17.40319 | 35896 ft | 459 kts | 312° |
| 2026-05-06 14:03 | 45.17779 | 17.33986 | 35914 ft | 458 kts | 310° |
| 2026-05-06 14:03 | 45.21559 | 17.28618 | 35914 ft | 458 kts | 310° |
| 2026-05-06 14:04 | 45.26071 | 17.22210 | 35925 ft | 458 kts | 310° |
| 2026-05-06 14:04 | 45.30581 | 17.15807 | 35912 ft | 458 kts | 310° |
| 2026-05-06 14:05 | 45.35085 | 17.09397 | 35917 ft | 458 kts | 310° |
| 2026-05-06 14:05 | 45.39559 | 17.03016 | 35917 ft | 458 kts | 310° |
| 2026-05-06 14:06 | 45.44058 | 16.96585 | 35919 ft | 458 kts | 310° |
| 2026-05-06 14:06 | 45.48561 | 16.90138 | 35927 ft | 459 kts | 309° |
| 2026-05-06 14:07 | 45.53071 | 16.83661 | 35925 ft | 460 kts | 309° |
| 2026-05-06 14:07 | 45.57579 | 16.77170 | 35926 ft | 460 kts | 309° |
| 2026-05-06 14:08 | 45.62078 | 16.70676 | 35925 ft | 460 kts | 309° |
| 2026-05-06 14:08 | 45.66581 | 16.64163 | 35940 ft | 460 kts | 309° |
| 2026-05-06 14:09 | 45.71094 | 16.57620 | 35930 ft | 462 kts | 309° |
| 2026-05-06 14:09 | 45.75611 | 16.51053 | 35929 ft | 462 kts | 309° |
| 2026-05-06 14:10 | 45.80112 | 16.44492 | 35928 ft | 461 kts | 309° |
| 2026-05-06 14:10 | 45.84602 | 16.37933 | 35925 ft | 460 kts | 309° |
| 2026-05-06 14:11 | 45.89104 | 16.31371 | 35926 ft | 463 kts | 310° |
| 2026-05-06 14:11 | 45.93863 | 16.25099 | 35925 ft | 465 kts | 313° |
| 2026-05-06 14:12 | 45.96865 | 16.21244 | 35928 ft | 465 kts | 313° |
| 2026-05-06 14:12 | 46.01655 | 16.15080 | 35927 ft | 465 kts | 313° |
| 2026-05-06 14:13 | 46.06470 | 16.08858 | 35930 ft | 464 kts | 313° |
| 2026-05-06 14:13 | 46.11273 | 16.02626 | 35935 ft | 465 kts | 313° |
| 2026-05-06 14:14 | 46.16076 | 15.96378 | 35930 ft | 465 kts | 313° |
| 2026-05-06 14:14 | 46.20880 | 15.90114 | 35924 ft | 465 kts | 313° |
| 2026-05-06 14:15 | 46.25682 | 15.83837 | 35926 ft | 465 kts | 313° |
| 2026-05-06 14:15 | 46.30434 | 15.77488 | 35932 ft | 464 kts | 311° |
| 2026-05-06 14:16 | 46.35118 | 15.71099 | 35923 ft | 462 kts | 311° |
| 2026-05-06 14:16 | 46.39798 | 15.64701 | 35918 ft | 462 kts | 311° |
| 2026-05-06 14:17 | 46.44444 | 15.58343 | 35916 ft | 462 kts | 311° |
| 2026-05-06 14:17 | 46.49118 | 15.51937 | 35909 ft | 462 kts | 311° |
| 2026-05-06 14:18 | 46.53792 | 15.45513 | 35921 ft | 464 kts | 311° |
| 2026-05-06 14:18 | 46.58474 | 15.39072 | 35921 ft | 462 kts | 311° |
| 2026-05-06 14:19 | 46.63142 | 15.32629 | 35907 ft | 462 kts | 311° |
| 2026-05-06 14:19 | 46.67810 | 15.26168 | 35894 ft | 463 kts | 311° |
| 2026-05-06 14:20 | 46.72473 | 15.19697 | 35884 ft | 463 kts | 311° |
| 2026-05-06 14:20 | 46.77146 | 15.13192 | 35888 ft | 466 kts | 311° |
| 2026-05-06 14:21 | 46.81842 | 15.06650 | 35873 ft | 465 kts | 310° |
| 2026-05-06 14:21 | 46.86502 | 15.00142 | 35883 ft | 462 kts | 310° |
| 2026-05-06 14:22 | 46.91143 | 14.93634 | 35877 ft | 462 kts | 310° |
| 2026-05-06 14:22 | 46.95788 | 14.87106 | 35886 ft | 463 kts | 310° |
| 2026-05-06 14:23 | 47.00438 | 14.80551 | 35881 ft | 465 kts | 310° |
| 2026-05-06 14:23 | 47.05096 | 14.73976 | 35882 ft | 465 kts | 310° |
| 2026-05-06 14:24 | 47.09746 | 14.67408 | 35887 ft | 462 kts | 310° |
| 2026-05-06 14:24 | 47.14335 | 14.60892 | 35866 ft | 461 kts | 309° |
| 2026-05-06 14:25 | 47.18949 | 14.54323 | 35873 ft | 463 kts | 309° |
| 2026-05-06 14:25 | 47.23579 | 14.47711 | 35864 ft | 463 kts | 309° |
| 2026-05-06 14:26 | 47.28211 | 14.41086 | 35863 ft | 464 kts | 309° |
| 2026-05-06 14:26 | 47.32843 | 14.34445 | 35862 ft | 464 kts | 309° |
| 2026-05-06 14:27 | 47.37470 | 14.27799 | 35843 ft | 464 kts | 309° |
| 2026-05-06 14:27 | 47.42101 | 14.21122 | 35837 ft | 466 kts | 309° |
| 2026-05-06 14:28 | 47.46747 | 14.14404 | 35808 ft | 467 kts | 309° |
| 2026-05-06 14:28 | 47.51385 | 14.07681 | 35817 ft | 467 kts | 309° |
| 2026-05-06 14:29 | 47.56023 | 14.00945 | 35778 ft | 467 kts | 309° |
| 2026-05-06 14:29 | 47.60624 | 13.94244 | 35814 ft | 467 kts | 308° |
| 2026-05-06 14:30 | 47.65275 | 13.87455 | 35772 ft | 470 kts | 308° |
| 2026-05-06 14:30 | 47.69932 | 13.80634 | 35761 ft | 470 kts | 308° |
| 2026-05-06 14:31 | 47.74585 | 13.73801 | 35743 ft | 470 kts | 308° |
| 2026-05-06 14:31 | 47.79235 | 13.66955 | 35736 ft | 470 kts | 308° |
| 2026-05-06 14:32 | 47.81423 | 13.63728 | 35738 ft | 470 kts | 308° |
| 2026-05-06 14:32 | 47.86084 | 13.56848 | 35747 ft | 472 kts | 308° |
| 2026-05-06 14:33 | 47.90740 | 13.49945 | 35739 ft | 472 kts | 307° |
| 2026-05-06 14:33 | 47.95401 | 13.43017 | 35725 ft | 472 kts | 307° |
| 2026-05-06 14:34 | 48.00054 | 13.36083 | 35720 ft | 472 kts | 307° |
| 2026-05-06 14:34 | 48.04702 | 13.29140 | 35728 ft | 472 kts | 307° |
| 2026-05-06 14:35 | 48.09342 | 13.22189 | 35734 ft | 472 kts | 307° |
| 2026-05-06 14:35 | 48.13944 | 13.15276 | 35723 ft | 472 kts | 307° |
| 2026-05-06 14:36 | 48.18575 | 13.08299 | 35727 ft | 472 kts | 307° |
| 2026-05-06 14:36 | 48.22068 | 13.03022 | 35729 ft | 471 kts | 307° |
| 2026-05-06 14:37 | 48.26471 | 12.95805 | 35726 ft | 468 kts | 304° |
| 2026-05-06 14:37 | 48.30791 | 12.88456 | 35730 ft | 470 kts | 304° |
| 2026-05-06 14:38 | 48.35130 | 12.81077 | 35726 ft | 470 kts | 304° |
| 2026-05-06 14:38 | 48.39457 | 12.73705 | 35731 ft | 469 kts | 304° |
| 2026-05-06 14:39 | 48.43750 | 12.66376 | 35733 ft | 469 kts | 304° |
| 2026-05-06 14:39 | 48.48065 | 12.58987 | 35730 ft | 469 kts | 304° |
| 2026-05-06 14:40 | 48.50597 | 12.54641 | 35736 ft | 469 kts | 304° |
| 2026-05-06 14:40 | 48.54905 | 12.47231 | 35738 ft | 469 kts | 304° |
| 2026-05-06 14:41 | 48.58926 | 12.40294 | 35736 ft | 469 kts | 304° |
| 2026-05-06 14:41 | 48.63223 | 12.32861 | 35736 ft | 469 kts | 304° |
| 2026-05-06 14:42 | 48.67510 | 12.25419 | 35769 ft | 468 kts | 304° |
| 2026-05-06 14:42 | 48.71409 | 12.17583 | 35748 ft | 462 kts | 296° |
| 2026-05-06 14:43 | 48.73589 | 12.11547 | 35743 ft | 456 kts | 289° |
| 2026-05-06 14:43 | 48.74626 | 12.07884 | 35751 ft | 453 kts | 285° |
| 2026-05-06 14:44 | 48.76399 | 11.98805 | 35746 ft | 446 kts | 276° |
| 2026-05-06 14:45 | 48.77514 | 11.88949 | 35750 ft | 444 kts | 274° |
| 2026-05-06 14:45 | 48.78262 | 11.81902 | 35768 ft | 445 kts | 274° |
| 2026-05-06 14:46 | 48.79248 | 11.72605 | 35753 ft | 446 kts | 274° |
| 2026-05-06 14:46 | 48.80231 | 11.63353 | 35745 ft | 447 kts | 275° |
| 2026-05-06 14:46 | 48.81064 | 11.58743 | 35738 ft | 456 kts | 286° |
| 2026-05-06 14:47 | 48.82546 | 11.54441 | 35744 ft | 467 kts | 298° |
| 2026-05-06 14:47 | 48.84636 | 11.50599 | 35756 ft | 478 kts | 310° |
| 2026-05-06 14:47 | 48.87254 | 11.47409 | 35752 ft | 488 kts | 321° |
| 2026-05-06 14:47 | 48.90308 | 11.45016 | 35779 ft | 498 kts | 333° |
| 2026-05-06 14:48 | 48.93664 | 11.43549 | 35760 ft | 507 kts | 345° |
| 2026-05-06 14:48 | 48.94836 | 11.43279 | 35761 ft | 509 kts | 349° |
| 2026-05-06 14:48 | 48.98400 | 11.43157 | 35759 ft | 516 kts | 1° |
| 2026-05-06 14:49 | 49.01891 | 11.44050 | 35763 ft | 520 kts | 13° |
| 2026-05-06 14:49 | 49.04052 | 11.45135 | 35766 ft | 523 kts | 20° |
| 2026-05-06 14:49 | 48.51352 | 12.53344 | 35729 ft | 0 kts | 304° |
| 2026-05-06 14:50 | 49.09267 | 11.49836 | 35768 ft | 525 kts | 40° |
| 2026-05-06 14:50 | 49.11850 | 11.53757 | 35763 ft | 523 kts | 52° |
| 2026-05-06 14:50 | 49.13903 | 11.58333 | 35741 ft | 522 kts | 64° |
| 2026-05-06 14:50 | 49.15354 | 11.63396 | 35768 ft | 519 kts | 75° |
| 2026-05-06 14:51 | 49.16155 | 11.68744 | 35791 ft | 513 kts | 87° |
| 2026-05-06 14:51 | 49.16278 | 11.74145 | 35775 ft | 506 kts | 99° |
| 2026-05-06 14:51 | 49.15728 | 11.79418 | 35769 ft | 497 kts | 111° |
| 2026-05-06 14:51 | 49.14540 | 11.84320 | 35771 ft | 487 kts | 122° |
| 2026-05-06 14:52 | 49.13210 | 11.87769 | 35752 ft | 479 kts | 132° |
| 2026-05-06 14:52 | 49.12014 | 11.90071 | 35762 ft | 472 kts | 139° |
| 2026-05-06 14:52 | 49.09753 | 11.93173 | 35734 ft | 400 kts | 153° |
| 2026-05-06 14:53 | 49.07169 | 11.94798 | 35354 ft | 403 kts | 174° |
| 2026-05-06 14:53 | 49.04413 | 11.95178 | 35561 ft | 395 kts | 188° |
| 2026-05-06 14:53 | 49.01727 | 11.94407 | 35687 ft | 394 kts | 202° |
| 2026-05-06 14:54 | 48.97882 | 11.90747 | 35762 ft | 401 kts | 226° |
| 2026-05-06 14:54 | 48.96192 | 11.87320 | 35753 ft | 410 kts | 240° |
| 2026-05-06 14:54 | 48.95135 | 11.83225 | 35754 ft | 423 kts | 253° |
| 2026-05-06 14:54 | 48.94798 | 11.78717 | 35757 ft | 437 kts | 266° |
| 2026-05-06 14:55 | 48.95055 | 11.74057 | 35767 ft | 444 kts | 272° |
| 2026-05-06 14:55 | 48.95991 | 11.64707 | 35759 ft | 447 kts | 274° |
| 2026-05-06 14:56 | 48.96999 | 11.55365 | 35768 ft | 447 kts | 275° |
| 2026-05-06 14:56 | 48.97831 | 11.50763 | 35750 ft | 455 kts | 286° |
| 2026-05-06 14:56 | 48.99313 | 11.46452 | 35770 ft | 467 kts | 298° |
| 2026-05-06 14:56 | 49.01408 | 11.42596 | 35768 ft | 478 kts | 310° |
| 2026-05-06 14:57 | 49.04030 | 11.39401 | 35766 ft | 488 kts | 322° |
| 2026-05-06 14:57 | 49.07079 | 11.37019 | 35768 ft | 497 kts | 334° |
| 2026-05-06 14:57 | 49.10433 | 11.35567 | 35766 ft | 506 kts | 346° |
| 2026-05-06 14:57 | 49.13915 | 11.35120 | 35766 ft | 513 kts | 358° |